Time;durP1;ratioP1;P1;durP2;ratioP2;P2;SDS_P1;SDS_P2;PMS_P1;PMS_P2;Temp;Humidity;BMP_temperature;BMP_pressure;BME280_temperature;BME280_humidity;BME280_pressure;Samples;Min_cycle;Max_cycle;Signal;HPM_P1;HPM_P2
2022/03/08 00:02:19;;;;;;;190.10;152.50;;;;;;;13.97;23.76;93992.88;5031611;28;20151;-83
2022/03/08 00:04:45;;;;;;;194.38;155.32;;;;;;;13.96;23.86;93992.13;5031180;28;20075;-83
2022/03/08 00:07:12;;;;;;;196.30;156.38;;;;;;;13.97;23.72;93990.19;5039676;28;20060;-83
2022/03/08 00:09:38;;;;;;;190.85;152.63;;;;;;;13.96;23.96;93994.81;5025736;28;20072;-84
2022/03/08 00:12:04;;;;;;;190.20;154.00;;;;;;;13.96;23.66;93988.69;5029907;28;20076;-84
2022/03/08 00:14:31;;;;;;;194.30;154.25;;;;;;;13.96;24.06;93991.38;5032109;28;20064;-84
2022/03/08 00:16:57;;;;;;;191.50;154.18;;;;;;;13.96;24.00;93996.75;5048151;28;20529;-84
2022/03/08 00:19:23;;;;;;;188.32;150.82;;;;;;;13.94;24.04;93994.47;5035055;28;20053;-84
2022/03/08 00:21:48;;;;;;;189.80;152.95;;;;;;;13.94;23.79;93991.78;5052474;28;20045;-83
2022/03/08 00:24:16;;;;;;;187.70;150.73;;;;;;;13.94;23.86;93982.97;5063503;28;20041;-83
2022/03/08 00:26:41;;;;;;;189.35;152.18;;;;;;;13.92;23.87;93978.03;5067268;28;20471;-83
2022/03/08 00:29:07;;;;;;;193.55;155.15;;;;;;;13.95;23.83;93982.56;5049503;28;20062;-83
2022/03/08 00:31:33;;;;;;;190.65;151.98;;;;;;;13.94;23.86;93966.84;5061627;28;20053;-82
2022/03/08 00:33:58;;;;;;;191.88;153.23;;;;;;;13.94;24.03;93964.91;5066858;28;20045;-83
2022/03/08 00:36:23;;;;;;;189.57;151.27;;;;;;;13.94;23.88;93959.53;5046110;28;20072;-83
2022/03/08 00:38:49;;;;;;;189.45;151.63;;;;;;;13.92;23.87;93964.59;5051026;28;20057;-83
2022/03/08 00:41:15;;;;;;;194.50;156.02;;;;;;;13.89;23.81;93965.44;5046651;28;20457;-84
2022/03/08 00:43:41;;;;;;;192.90;152.95;;;;;;;13.88;23.92;93963.94;5069326;28;20048;-83
2022/03/08 00:46:07;;;;;;;192.40;154.18;;;;;;;13.88;23.98;93961.25;5068639;28;20041;-83
2022/03/08 00:48:33;;;;;;;191.50;151.98;;;;;;;13.89;23.98;93962.75;5064143;28;20494;-83
2022/03/08 00:50:58;;;;;;;192.98;153.15;;;;;;;13.90;23.85;93958.13;5052383;28;20296;-83
2022/03/08 00:53:24;;;;;;;188.55;151.57;;;;;;;13.89;23.83;93954.69;5069928;28;20391;-84
2022/03/08 00:55:50;;;;;;;196.25;156.48;;;;;;;13.91;23.85;93960.38;5063700;28;20037;-84
2022/03/08 00:58:15;;;;;;;187.73;151.80;;;;;;;13.87;24.06;93950.91;5063660;28;20418;-83
2022/03/08 01:00:41;;;;;;;200.82;161.45;;;;;;;13.91;23.83;93954.25;5034269;28;20453;-83
2022/03/08 01:03:07;;;;;;;190.55;153.13;;;;;;;13.91;23.87;93955.00;5049339;28;20040;-83
2022/03/08 01:05:33;;;;;;;190.55;154.38;;;;;;;13.90;23.52;93956.19;5041301;28;20052;-83
2022/03/08 01:08:01;;;;;;;195.70;157.43;;;;;;;13.91;23.61;93951.56;5067081;28;20041;-83
2022/03/08 01:10:27;;;;;;;193.15;155.15;;;;;;;13.89;24.07;93952.00;5045375;28;20088;-84
2022/03/08 01:12:55;;;;;;;187.52;150.32;;;;;;;13.87;24.05;93954.34;5067195;28;23001;-83
2022/03/08 01:15:23;;;;;;;195.43;156.18;;;;;;;13.90;23.94;93956.19;5067687;28;20509;-83
2022/03/08 01:17:49;;;;;;;193.95;154.30;;;;;;;13.89;23.94;93948.56;5046951;28;20037;-83
2022/03/08 01:20:14;;;;;;;190.10;153.75;;;;;;;13.88;24.15;93944.38;5049632;28;20121;-82
2022/03/08 01:22:40;;;;;;;195.85;158.25;;;;;;;13.90;23.80;93950.06;5064412;28;20112;-83
2022/03/08 01:25:08;;;;;;;192.60;155.05;;;;;;;13.89;23.88;93937.81;5048523;28;20036;-83
2022/03/08 01:27:34;;;;;;;187.13;149.60;;;;;;;13.89;23.89;93940.50;5050171;28;20422;-83
2022/03/08 01:30:00;;;;;;;191.75;154.23;;;;;;;13.88;24.11;93931.69;5068272;28;20048;-84
2022/03/08 01:32:26;;;;;;;195.43;156.85;;;;;;;13.88;23.79;93930.91;5041124;28;20041;-83
2022/03/08 01:34:51;;;;;;;190.40;152.32;;;;;;;13.88;23.86;93930.91;5065067;28;20047;-83
2022/03/08 01:37:18;;;;;;;190.68;153.40;;;;;;;13.88;23.92;93933.59;5063959;28;20415;-82
2022/03/08 01:39:44;;;;;;;199.85;159.13;;;;;;;13.90;23.94;93931.25;5061494;28;20106;-83
2022/03/08 01:42:15;;;;;;;196.30;157.43;;;;;;;13.90;24.07;93931.25;5042018;28;20410;-83
2022/03/08 01:44:44;;;;;;;191.40;153.55;;;;;;;13.89;24.10;93927.81;5046234;28;20514;-83
2022/03/08 01:47:14;;;;;;;191.27;153.02;;;;;;;13.88;24.05;93933.59;5059582;28;20494;-83
2022/03/08 01:49:40;;;;;;;193.27;151.77;;;;;;;13.87;24.22;93929.41;5041250;28;20082;-84
2022/03/08 01:52:07;;;;;;;197.07;156.95;;;;;;;13.87;23.88;93919.41;5057044;28;20043;-83
2022/03/08 01:54:33;;;;;;;188.55;149.50;;;;;;;13.85;23.91;93916.41;5045788;28;20048;-84
2022/03/08 01:56:59;;;;;;;196.13;155.98;;;;;;;13.87;23.81;93922.09;5047953;28;20094;-83
2022/03/08 01:59:24;;;;;;;192.85;153.95;;;;;;;13.88;24.15;93918.22;5063673;28;20106;-83
2022/03/08 02:01:50;;;;;;;188.77;150.63;;;;;;;13.85;23.93;93914.47;5047695;28;20036;-83
2022/03/08 02:04:17;;;;;;;191.52;152.68;;;;;;;13.89;24.08;93914.38;5047374;28;20060;-83
2022/03/08 02:06:44;;;;;;;189.20;152.32;;;;;;;13.89;24.02;93910.94;5043209;28;20037;-82
2022/03/08 02:09:10;;;;;;;196.38;156.48;;;;;;;13.90;23.99;93910.50;5042261;28;20410;-83
2022/03/08 02:11:37;;;;;;;187.50;150.38;;;;;;;13.92;24.00;93910.06;5044934;28;20040;-83
2022/03/08 02:14:02;;;;;;;192.15;152.07;;;;;;;13.91;23.96;93912.00;5049352;28;20037;-83
2022/03/08 02:16:28;;;;;;;192.18;150.63;;;;;;;13.91;23.74;93912.00;5063028;28;20041;-83
2022/03/08 02:18:54;;;;;;;190.45;151.88;;;;;;;13.92;23.90;93913.50;5071462;28;20041;-83
2022/03/08 02:21:21;;;;;;;192.43;153.50;;;;;;;13.93;24.13;93914.25;5043217;28;20048;-83
2022/03/08 02:23:46;;;;;;;199.77;158.60;;;;;;;13.95;23.88;93906.53;5040078;28;20045;-83
2022/03/08 02:26:12;;;;;;;192.98;154.35;;;;;;;13.94;23.92;93913.84;5042169;28;20181;-82
2022/03/08 02:28:40;;;;;;;189.13;151.20;;;;;;;13.95;23.82;93914.59;5047171;28;20044;-84
2022/03/08 02:31:07;;;;;;;195.18;154.85;;;;;;;13.95;23.85;93909.22;5063791;28;20040;-83
2022/03/08 02:33:32;;;;;;;189.23;150.98;;;;;;;13.96;23.75;93906.09;5065479;28;20045;-84
2022/03/08 02:35:58;;;;;;;198.52;158.32;;;;;;;13.96;23.82;93902.66;5062621;28;20041;-82
2022/03/08 02:38:23;;;;;;;191.38;153.15;;;;;;;13.97;24.13;93904.91;5066077;28;20040;-83
2022/03/08 02:40:49;;;;;;;190.02;151.45;;;;;;;13.95;23.85;93898.47;5048161;28;20509;-83
2022/03/08 02:43:15;;;;;;;194.02;154.27;;;;;;;13.98;23.84;93905.66;5046416;28;20150;-83
2022/03/08 02:45:41;;;;;;;191.10;152.52;;;;;;;13.95;24.22;93883.06;5047422;28;20459;-83
2022/03/08 02:48:08;;;;;;;190.45;151.75;;;;;;;13.97;23.83;93894.16;5048274;28;20036;-83
2022/03/08 02:50:33;;;;;;;198.50;159.45;;;;;;;13.98;24.43;93886.84;5045829;28;20039;-83
2022/03/08 02:53:00;;;;;;;189.90;151.45;;;;;;;13.99;23.90;93878.34;5041578;28;20041;-84
2022/03/08 02:55:29;;;;;;;192.50;155.90;;;;;;;13.99;24.08;93872.22;5043718;28;20053;-83
2022/03/08 02:57:56;;;;;;;189.68;151.43;;;;;;;13.99;24.14;93877.59;5066625;28;20044;-83
2022/03/08 03:00:23;;;;;;;199.77;159.88;;;;;;;14.00;24.08;93874.47;5068217;28;20037;-84
2022/03/08 03:02:49;;;;;;;189.07;153.32;;;;;;;14.00;23.95;93876.41;5049630;28;20113;-83
2022/03/08 03:05:14;;;;;;;190.70;153.63;;;;;;;13.99;24.27;93867.59;5036241;28;20056;-84
2022/03/08 03:07:41;;;;;;;189.13;152.32;;;;;;;14.01;24.20;93870.59;5051106;28;20044;-83
2022/03/08 03:10:10;;;;;;;189.32;151.52;;;;;;;14.02;24.03;93871.34;5053523;28;20458;-83
2022/03/08 03:12:36;;;;;;;191.30;153.57;;;;;;;14.00;24.20;93868.34;5053048;28;20463;-82
2022/03/08 03:15:04;;;;;;;194.02;155.73;;;;;;;14.00;24.16;93868.34;5049003;28;20041;-83
2022/03/08 03:17:30;;;;;;;188.35;151.65;;;;;;;13.97;23.91;93869.97;5063090;28;20112;-83
2022/03/08 03:19:55;;;;;;;188.38;152.38;;;;;;;14.00;23.98;93871.03;5051829;28;20036;-84
2022/03/08 03:22:21;;;;;;;190.10;153.65;;;;;;;14.00;23.95;93871.03;5042512;28;20158;-83
2022/03/08 03:24:46;;;;;;;191.77;152.77;;;;;;;14.00;23.87;93873.72;5052884;28;20094;-83
2022/03/08 03:27:11;;;;;;;197.13;157.30;;;;;;;13.99;24.00;93866.84;5048304;28;20048;-83
2022/03/08 03:29:37;;;;;;;189.38;150.25;;;;;;;13.99;23.84;93864.91;5050467;28;20509;-83
2022/03/08 03:32:03;;;;;;;188.82;150.00;;;;;;;13.99;24.08;93870.28;5051064;28;20119;-83
2022/03/08 03:34:29;;;;;;;192.90;154.63;;;;;;;13.98;23.94;93866.09;5067379;28;20573;-83
2022/03/08 03:36:54;;;;;;;191.15;153.63;;;;;;;13.99;24.00;93858.78;5050782;28;20067;-83
2022/03/08 03:39:20;;;;;;;192.25;152.52;;;;;;;14.00;23.81;93871.03;5067035;28;20064;-83
2022/03/08 03:41:46;;;;;;;191.05;152.05;;;;;;;13.97;23.82;93866.53;5047474;28;20060;-83
2022/03/08 03:44:11;;;;;;;195.10;155.15;;;;;;;13.98;23.76;93862.66;5047562;28;20064;-82
2022/03/08 03:46:37;;;;;;;191.05;152.50;;;;;;;14.00;23.97;93868.34;5050114;28;20041;-83
2022/03/08 03:49:03;;;;;;;189.40;153.32;;;;;;;13.99;24.17;93867.59;5047811;28;20047;-83
2022/03/08 03:51:28;;;;;;;191.77;154.13;;;;;;;14.00;23.77;93869.09;5049165;28;20071;-82
2022/03/08 03:53:55;;;;;;;191.68;154.32;;;;;;;13.99;23.68;93867.59;5065807;28;20066;-83
2022/03/08 03:56:20;;;;;;;190.77;152.40;;;;;;;13.99;23.81;93862.22;5048801;28;20139;-83
2022/03/08 03:58:46;;;;;;;188.25;150.35;;;;;;;14.01;23.80;93865.22;5065174;28;20055;-83
2022/03/08 04:01:11;;;;;;;192.18;154.82;;;;;;;14.02;23.73;93863.28;5043378;28;20140;-83
2022/03/08 04:03:37;;;;;;;190.90;152.80;;;;;;;14.00;23.92;93858.34;5066927;28;20131;-83
2022/03/08 04:06:02;;;;;;;192.95;153.68;;;;;;;14.00;23.94;93855.66;5066478;28;20440;-83
2022/03/08 04:08:28;;;;;;;193.60;154.95;;;;;;;14.00;23.71;93855.66;5061281;28;20080;-83
2022/03/08 04:10:54;;;;;;;189.57;152.35;;;;;;;14.02;23.91;93855.22;5047749;28;20410;-83
2022/03/08 04:13:19;;;;;;;190.85;153.45;;;;;;;14.00;23.98;93852.97;5043884;28;20104;-82
2022/03/08 04:15:46;;;;;;;193.65;155.02;;;;;;;14.01;23.94;93854.47;5046958;28;20453;-83
2022/03/08 04:18:12;;;;;;;188.40;149.20;;;;;;;14.03;23.83;93859.41;5050946;28;20711;-83
2022/03/08 04:20:38;;;;;;;194.73;155.88;;;;;;;14.01;23.57;93859.84;5048662;28;20075;-83
2022/03/08 04:23:03;;;;;;;188.93;151.13;;;;;;;13.97;23.76;93858.44;5053248;28;20036;-82
2022/03/08 04:25:30;;;;;;;189.80;152.20;;;;;;;14.01;24.01;93859.09;5052635;28;20044;-83
2022/03/08 04:27:56;;;;;;;190.32;153.55;;;;;;;14.01;24.02;93859.84;5068652;28;20459;-83
2022/03/08 04:30:22;;;;;;;190.05;154.43;;;;;;;13.99;23.97;93859.53;5068562;28;20055;-82
2022/03/08 04:32:50;;;;;;;190.52;153.68;;;;;;;14.00;23.92;93866.41;5055777;28;20041;-82
2022/03/08 04:35:16;;;;;;;190.27;153.13;;;;;;;14.01;23.84;93861.78;5050916;28;20486;-83
2022/03/08 04:37:42;;;;;;;191.82;154.52;;;;;;;13.99;23.77;93862.22;5064110;28;20040;-83
2022/03/08 04:40:08;;;;;;;188.50;150.82;;;;;;;14.00;23.82;93876.41;5055502;28;20047;-83
2022/03/08 04:42:34;;;;;;;188.07;150.70;;;;;;;13.99;23.75;93874.91;5048996;28;20422;-83
2022/03/08 04:45:00;;;;;;;196.32;158.25;;;;;;;14.01;23.83;93880.59;5046127;28;20033;-84
2022/03/08 04:47:25;;;;;;;190.48;151.85;;;;;;;14.00;24.03;93887.16;5047442;28;20056;-83
2022/03/08 04:49:51;;;;;;;191.52;154.77;;;;;;;14.01;23.75;93877.91;5049372;28;20305;-83
2022/03/08 04:52:16;;;;;;;188.40;151.45;;;;;;;14.02;23.83;93880.19;5060383;28;20032;-83
2022/03/08 04:54:42;;;;;;;191.75;154.60;;;;;;;14.01;23.83;93886.75;5065487;28;20041;-83
2022/03/08 04:57:07;;;;;;;189.85;150.05;;;;;;;14.02;23.73;93880.19;5050850;28;20045;-83
2022/03/08 04:59:33;;;;;;;189.50;151.90;;;;;;;14.00;23.91;93874.47;5050877;28;20125;-83
2022/03/08 05:01:59;;;;;;;193.65;154.70;;;;;;;14.01;23.81;93867.91;5046976;28;20048;-82
2022/03/08 05:04:24;;;;;;;191.20;153.45;;;;;;;14.03;23.83;93873.63;5049346;28;20041;-83
2022/03/08 05:06:50;;;;;;;188.75;150.75;;;;;;;14.02;23.91;93874.81;5049190;28;20036;-83
2022/03/08 05:09:16;;;;;;;191.98;153.95;;;;;;;14.04;23.76;93875.13;5050074;28;20119;-83
2022/03/08 05:11:42;;;;;;;195.18;156.93;;;;;;;14.03;23.68;93875.56;5044296;28;20059;-85
2022/03/08 05:14:08;;;;;;;191.93;152.00;;;;;;;14.05;24.00;93876.63;5048885;28;20064;-83
2022/03/08 05:16:33;;;;;;;188.50;151.85;;;;;;;14.05;23.82;93879.31;5066132;28;20071;-83
2022/03/08 05:18:59;;;;;;;186.38;150.43;;;;;;;14.04;23.41;93875.13;5049823;28;20040;-85
2022/03/08 05:21:24;;;;;;;189.25;151.85;;;;;;;14.06;23.92;93872.75;5045160;28;20348;-85
2022/03/08 05:23:50;;;;;;;193.48;156.02;;;;;;;14.07;23.71;93874.25;5066763;28;20123;-84
2022/03/08 05:26:15;;;;;;;190.32;152.02;;;;;;;14.06;23.58;93878.13;5064931;28;20477;-84
2022/03/08 05:28:46;;;;;;;190.88;153.90;;;;;;;14.05;23.65;93875.88;5047098;28;20127;-83
2022/03/08 05:31:13;;;;;;;192.73;154.00;;;;;;;14.08;23.86;93878.47;5041957;28;20056;-85
2022/03/08 05:33:40;;;;;;;191.18;153.80;;;;;;;14.09;23.80;93873.84;5067279;28;20041;-85
2022/03/08 05:36:06;;;;;;;198.38;159.85;;;;;;;14.10;23.58;93875.34;5029087;28;20053;-85
2022/03/08 05:38:33;;;;;;;192.02;154.48;;;;;;;14.08;23.61;93878.47;5047484;28;20721;-83
2022/03/08 05:40:59;;;;;;;189.10;152.90;;;;;;;14.10;23.66;93878.03;5061156;28;20040;-83
2022/03/08 05:43:26;;;;;;;191.70;152.10;;;;;;;14.10;23.63;93886.84;5041967;28;20426;-83
2022/03/08 05:45:51;;;;;;;192.75;155.82;;;;;;;14.07;23.61;93874.25;5044789;28;20523;-82
2022/03/08 05:48:17;;;;;;;195.52;157.50;;;;;;;13.00;23.47;93875.81;5044603;28;20044;-83
2022/03/08 05:50:43;;;;;;;216.27;171.88;;;;;;;13.50;23.37;93884.00;5044163;28;20060;-83
2022/03/08 05:53:09;;;;;;;199.18;160.18;;;;;;;13.75;23.16;93880.59;5041228;28;20044;-83
2022/03/08 05:55:34;;;;;;;193.80;155.60;;;;;;;13.89;23.06;93876.72;5047800;28;20036;-83
2022/03/08 05:58:00;;;;;;;194.57;156.65;;;;;;;13.97;22.86;93872.66;5034318;28;20127;-81
2022/03/08 06:00:26;;;;;;;190.18;152.75;;;;;;;14.01;23.21;93881.34;5051615;28;20469;-84
2022/03/08 06:02:52;;;;;;;193.82;154.80;;;;;;;14.03;23.07;93878.25;5048856;28;20108;-83
2022/03/08 06:05:18;;;;;;;193.07;156.18;;;;;;;14.02;23.18;93872.13;5070956;28;20040;-83
2022/03/08 06:07:43;;;;;;;194.60;156.65;;;;;;;14.03;23.31;93879.00;5048089;28;20074;-83
2022/03/08 06:10:09;;;;;;;190.35;152.63;;;;;;;14.05;23.50;93875.88;5056910;28;20462;-83
2022/03/08 06:12:36;;;;;;;193.88;154.77;;;;;;;14.06;23.39;93880.06;5051816;28;20524;-83
2022/03/08 06:15:02;;;;;;;192.05;155.15;;;;;;;14.05;23.55;93884.69;5059876;28;20040;-83
2022/03/08 06:17:28;;;;;;;192.13;152.80;;;;;;;14.07;23.48;93878.88;5039555;28;20493;-83
2022/03/08 06:19:54;;;;;;;191.85;152.35;;;;;;;14.04;23.74;93877.81;5034277;28;20055;-84
2022/03/08 06:22:19;;;;;;;201.73;160.02;;;;;;;14.06;23.60;93886.19;5038546;28;20041;-83
2022/03/08 06:24:45;;;;;;;190.95;153.52;;;;;;;14.05;23.42;93884.69;5042566;28;20398;-84
2022/03/08 06:27:11;;;;;;;190.95;155.05;;;;;;;14.08;23.58;93881.16;5049843;28;20107;-82
2022/03/08 06:29:37;;;;;;;194.23;156.27;;;;;;;14.09;23.54;93885.34;5033970;28;20048;-83
2022/03/08 06:32:03;;;;;;;194.82;155.25;;;;;;;14.11;23.59;93880.28;5041361;28;20655;-86
2022/03/08 06:34:29;;;;;;;188.77;150.75;;;;;;;14.09;23.54;93887.28;5051532;28;20047;-84
2022/03/08 06:36:54;;;;;;;187.57;149.63;;;;;;;14.10;23.81;93884.16;5054967;28;20056;-84
2022/03/08 06:39:20;;;;;;;192.23;153.93;;;;;;;14.11;23.80;93885.66;5070066;28;20166;-85
2022/03/08 06:41:45;;;;;;;187.35;150.25;;;;;;;14.10;23.58;93880.72;5055811;28;20029;-83
2022/03/08 06:44:11;;;;;;;194.88;156.00;;;;;;;14.10;23.53;93878.78;5055685;28;20110;-84
2022/03/08 06:46:41;;;;;;;187.60;151.63;;;;;;;14.11;23.87;93882.97;5069817;28;20410;-85
2022/03/08 06:49:08;;;;;;;188.18;151.57;;;;;;;14.12;23.68;93883.72;5073177;28;20048;-84
2022/03/08 06:51:34;;;;;;;191.43;155.30;;;;;;;14.11;23.65;93874.16;5053935;28;20119;-84
2022/03/08 06:54:00;;;;;;;189.18;152.80;;;;;;;14.12;23.75;93883.72;5067288;28;20045;-86
2022/03/08 06:56:25;;;;;;;192.35;154.32;;;;;;;14.12;23.65;93881.03;5031184;28;20125;-81
2022/03/08 06:58:51;;;;;;;189.65;150.95;;;;;;;14.12;23.77;93881.78;5047658;28;20611;-84
2022/03/08 07:01:17;;;;;;;189.70;153.77;;;;;;;14.14;23.50;93889.44;5050017;28;20048;-83
2022/03/08 07:03:43;;;;;;;192.10;154.77;;;;;;;14.15;23.80;93888.25;5050526;28;20032;-84
2022/03/08 07:06:09;;;;;;;189.60;153.20;;;;;;;14.13;23.83;93880.59;5052147;28;20036;-84
2022/03/08 07:08:36;;;;;;;190.57;153.43;;;;;;;14.15;23.75;93888.25;5052041;28;20051;-84
2022/03/08 07:11:04;;;;;;;190.20;153.85;;;;;;;14.12;23.54;93886.41;5068362;28;20040;-83
2022/03/08 07:13:32;;;;;;;188.80;150.27;;;;;;;14.14;23.66;93892.88;5048133;28;20104;-83
2022/03/08 07:15:57;;;;;;;189.50;150.50;;;;;;;14.16;23.84;93892.44;5053720;28;20041;-84
2022/03/08 07:18:23;;;;;;;191.32;154.23;;;;;;;14.14;23.77;93889.44;5071789;28;20124;-83
2022/03/08 07:20:50;;;;;;;186.50;150.70;;;;;;;14.15;23.73;93899.00;5051030;28;20057;-83
2022/03/08 07:23:16;;;;;;;188.77;154.48;;;;;;;14.14;23.70;93892.88;5049040;28;20051;-84
2022/03/08 07:25:42;;;;;;;190.45;154.73;;;;;;;14.16;23.73;93897.81;5045470;28;20509;-84
2022/03/08 07:28:08;;;;;;;190.32;154.32;;;;;;;14.17;23.77;93894.69;5049878;28;20048;-83
2022/03/08 07:30:34;;;;;;;199.73;160.18;;;;;;;14.17;23.68;93904.69;5071806;28;20040;-84
2022/03/08 07:32:59;;;;;;;200.05;161.35;;;;;;;14.17;23.89;93899.31;5068465;28;20040;-84
2022/03/08 07:35:25;;;;;;;191.85;155.10;;;;;;;14.17;23.82;93905.44;5042833;28;20036;-84
2022/03/08 07:37:51;;;;;;;190.55;152.40;;;;;;;14.17;23.89;93899.31;5051191;28;20364;-83
2022/03/08 07:40:16;;;;;;;189.48;153.70;;;;;;;14.17;23.97;93902.00;5072621;28;20352;-83
2022/03/08 07:42:42;;;;;;;197.13;159.50;;;;;;;14.16;24.04;93895.88;5039207;28;20040;-83
2022/03/08 07:45:09;;;;;;;191.93;154.77;;;;;;;14.16;23.67;93901.25;5048010;28;20041;-82
2022/03/08 07:47:34;;;;;;;194.65;156.20;;;;;;;14.16;23.82;93892.44;5055495;28;20051;-83
2022/03/08 07:50:00;;;;;;;192.27;154.18;;;;;;;14.17;23.95;93899.31;5042133;28;20384;-84
2022/03/08 07:52:26;;;;;;;189.80;152.88;;;;;;;14.17;23.78;93896.63;5069563;28;20090;-83
2022/03/08 07:54:51;;;;;;;186.73;149.85;;;;;;;14.18;23.64;93900.81;5051406;28;20038;-84
2022/03/08 07:57:17;;;;;;;190.02;150.73;;;;;;;14.16;23.90;93911.25;5050551;28;20498;-84
2022/03/08 07:59:42;;;;;;;190.65;154.02;;;;;;;14.15;23.85;93907.06;5062447;28;20438;-84
2022/03/08 08:02:08;;;;;;;191.77;155.57;;;;;;;14.13;24.10;93907.50;5052910;28;20076;-84
2022/03/08 08:04:33;;;;;;;194.13;157.55;;;;;;;14.12;23.74;93894.47;5037597;28;20048;-84
2022/03/08 08:06:59;;;;;;;189.68;153.93;;;;;;;14.14;23.98;93909.00;5043420;28;20037;-84
2022/03/08 08:09:25;;;;;;;192.13;154.38;;;;;;;14.15;23.70;93899.75;5050839;28;20048;-84
2022/03/08 08:11:51;;;;;;;191.38;154.73;;;;;;;14.14;24.05;93900.19;5060996;28;20066;-85
2022/03/08 08:14:17;;;;;;;190.00;152.38;;;;;;;14.12;23.68;93902.56;5052027;28;20047;-84
2022/03/08 08:16:43;;;;;;;188.98;153.45;;;;;;;14.07;24.04;93901.16;5037008;28;20037;-84
2022/03/08 08:19:08;;;;;;;192.02;154.95;;;;;;;14.10;23.91;93907.59;5051460;28;20112;-84
2022/03/08 08:21:34;;;;;;;190.55;153.27;;;;;;;14.10;23.71;93912.97;5052536;28;20124;-83
2022/03/08 08:24:00;;;;;;;194.32;156.27;;;;;;;14.11;23.79;93903.72;5040051;28;20273;-85
2022/03/08 08:26:27;;;;;;;192.40;154.38;;;;;;;14.11;23.84;93907.19;5045773;28;20067;-84
2022/03/08 08:28:53;;;;;;;191.70;155.25;;;;;;;14.11;24.04;93906.41;5070991;28;20111;-84
2022/03/08 08:31:18;;;;;;;190.38;154.23;;;;;;;14.05;23.70;93911.59;5050360;28;20060;-84
2022/03/08 08:33:44;;;;;;;193.93;155.63;;;;;;;14.04;23.89;93915.44;5054362;28;20045;-85
2022/03/08 08:36:09;;;;;;;190.27;151.27;;;;;;;14.05;24.01;93906.19;5069476;28;20044;-84
2022/03/08 08:38:35;;;;;;;187.45;149.88;;;;;;;14.08;23.80;93899.22;5052391;28;20044;-85
2022/03/08 08:41:01;;;;;;;193.48;156.27;;;;;;;14.13;23.93;93896.00;5043766;28;20040;-83
2022/03/08 08:43:26;;;;;;;189.10;152.50;;;;;;;14.13;23.92;93893.28;5051871;28;20041;-84
2022/03/08 08:45:52;;;;;;;187.80;150.82;;;;;;;14.11;23.80;93901.03;5052516;28;20079;-83
2022/03/08 08:48:20;;;;;;;192.25;154.23;;;;;;;14.10;23.80;93900.28;5068654;28;20047;-83
2022/03/08 08:50:46;;;;;;;190.00;153.27;;;;;;;14.10;23.73;93891.47;5056473;28;20095;-83
2022/03/08 08:53:12;;;;;;;190.98;153.38;;;;;;;14.13;23.98;93893.28;5053664;28;20041;-83
2022/03/08 08:55:38;;;;;;;188.10;151.13;;;;;;;14.15;23.77;93899.00;5056130;28;20037;-84
2022/03/08 08:58:05;;;;;;;193.57;156.90;;;;;;;14.15;23.80;93897.06;5065537;28;20041;-84
2022/03/08 09:00:31;;;;;;;196.85;156.88;;;;;;;14.12;23.73;93894.47;5043867;28;20410;-84
2022/03/08 09:02:57;;;;;;;194.68;155.43;;;;;;;14.09;23.33;93892.66;5052235;28;20094;-83
2022/03/08 09:05:22;;;;;;;200.50;160.98;;;;;;;14.08;23.39;93897.28;5050291;28;20518;-84
2022/03/08 09:07:48;;;;;;;191.30;152.82;;;;;;;14.10;23.55;93900.28;5053962;28;20412;-84
2022/03/08 09:10:15;;;;;;;188.93;152.45;;;;;;;14.14;23.67;93889.44;5050366;28;20040;-83
2022/03/08 09:12:43;;;;;;;192.60;154.73;;;;;;;14.14;23.54;93892.13;5052606;28;20044;-84
2022/03/08 09:15:10;;;;;;;189.05;152.15;;;;;;;14.14;23.77;93884.81;5069583;28;20044;-84
2022/03/08 09:17:37;;;;;;;187.00;150.05;;;;;;;14.16;23.71;93882.44;5041458;28;20045;-85
2022/03/08 09:20:13;;;;;;;187.45;151.35;;;;;;;14.18;23.77;93880.06;5044553;28;20044;-83
2022/03/08 09:22:39;;;;;;;188.18;149.48;;;;;;;14.17;23.50;93885.88;5050786;28;20032;-85
2022/03/08 09:25:06;;;;;;;189.65;152.52;;;;;;;14.10;23.59;93884.16;5034176;28;20048;-86
2022/03/08 09:27:34;;;;;;;190.65;153.27;;;;;;;14.03;23.53;93883.63;5065266;28;20460;-84
2022/03/08 09:30:00;;;;;;;188.25;151.85;;;;;;;14.02;23.62;93872.13;5047205;28;20029;-85
2022/03/08 09:32:26;;;;;;;187.10;150.32;;;;;;;13.99;23.47;93877.59;5045503;28;20036;-84
2022/03/08 09:34:52;;;;;;;188.75;151.82;;;;;;;13.99;23.36;93867.59;5058657;28;20040;-84
2022/03/08 09:37:17;;;;;;;191.52;153.10;;;;;;;13.91;23.26;93873.63;5032553;28;20062;-85
2022/03/08 09:39:43;;;;;;;187.93;149.90;;;;;;;13.89;23.39;93882.09;5040544;28;20036;-84
2022/03/08 09:42:09;;;;;;;186.20;149.00;;;;;;;13.97;23.29;93882.66;5042272;28;20045;-84
2022/03/08 09:44:36;;;;;;;192.77;150.18;;;;;;;13.98;23.05;93876.09;5042776;28;20036;-84
2022/03/08 09:47:02;;;;;;;188.13;149.25;;;;;;;14.01;23.17;93886.75;5051247;28;20470;-84
2022/03/08 09:49:28;;;;;;;188.25;149.48;;;;;;;13.90;22.81;93880.94;5063038;28;20037;-85
2022/03/08 09:51:54;;;;;;;186.73;146.95;;;;;;;13.99;23.01;93874.91;5050394;28;20067;-84
2022/03/08 09:54:21;;;;;;;190.18;150.70;;;;;;;13.91;22.76;93890.50;5051143;28;20060;-84
2022/03/08 09:56:47;;;;;;;188.80;150.07;;;;;;;13.79;22.79;93886.63;5062626;28;20044;-84
2022/03/08 09:59:17;;;;;;;187.23;147.25;;;;;;;13.77;22.83;93880.16;5056456;28;20045;-85
2022/03/08 10:01:43;;;;;;;183.88;145.10;;;;;;;13.85;22.66;93874.16;5042785;28;20629;-84
2022/03/08 10:04:09;;;;;;;199.13;157.50;;;;;;;13.88;22.10;93877.91;5033968;28;20045;-85
2022/03/08 10:06:40;;;;;;;193.93;152.63;;;;;;;13.94;22.72;93878.13;5059142;28;20508;-83
2022/03/08 10:09:20;;;;;;;193.27;151.00;;;;;;;13.98;22.97;93886.84;5062090;28;20051;-84
2022/03/08 10:11:54;;;;;;;187.63;148.18;;;;;;;14.03;22.84;93880.94;5050769;28;20053;-84
2022/03/08 10:14:47;;;;;;;189.80;150.18;;;;;;;14.04;22.99;93877.06;5053024;28;20040;-84
2022/03/08 10:17:37;;;;;;;189.90;149.05;;;;;;;14.05;23.13;93883.94;5045198;28;20057;-84
2022/03/08 10:20:05;;;;;;;191.83;151.03;;;;;;;14.10;22.67;93875.34;5052226;28;20071;-84
2022/03/08 10:22:34;;;;;;;187.43;150.05;;;;;;;14.11;23.33;93877.59;5049597;28;20041;-84
2022/03/08 10:25:20;;;;;;;193.57;153.10;;;;;;;14.10;23.24;93872.66;5071617;28;20120;-84
2022/03/08 10:27:51;;;;;;;186.93;148.90;;;;;;;14.13;23.44;93872.53;5045037;28;20100;-84
2022/03/08 10:30:17;;;;;;;188.18;149.82;;;;;;;14.14;23.16;93865.97;5047269;28;20045;-84
2022/03/08 10:32:42;;;;;;;188.55;150.98;;;;;;;14.07;23.42;93858.13;5070689;28;20052;-85
2022/03/08 10:35:10;;;;;;;187.82;150.20;;;;;;;13.99;23.11;93856.84;5069931;28;20385;-84
2022/03/08 10:37:38;;;;;;;188.00;149.25;;;;;;;13.73;23.43;93866.81;5066482;28;20040;-84
2022/03/08 10:40:09;;;;;;;187.90;149.25;;;;;;;13.75;23.08;93858.34;5065335;28;20036;-83
2022/03/08 10:42:37;;;;;;;186.63;147.63;;;;;;;13.93;22.87;93855.13;5065749;28;20457;-84
2022/03/08 10:45:07;;;;;;;187.80;149.00;;;;;;;13.94;23.04;93856.63;5068129;28;20111;-85
2022/03/08 10:47:44;;;;;;;203.93;161.38;;;;;;;13.96;23.16;93862.31;5068233;28;20044;-85
2022/03/08 10:50:12;;;;;;;187.80;147.93;;;;;;;14.02;23.03;93858.66;5049055;28;20406;-85
2022/03/08 10:52:40;;;;;;;188.25;148.32;;;;;;;13.89;22.94;93867.91;5047750;28;20406;-84
2022/03/08 10:55:12;;;;;;;200.45;158.02;;;;;;;13.82;23.12;93863.50;5053595;28;20414;-84
2022/03/08 10:57:39;;;;;;;193.77;152.32;;;;;;;13.67;22.93;93865.09;5061286;28;20464;-81
2022/03/08 11:00:11;;;;;;;193.65;153.23;;;;;;;13.74;22.81;93862.97;5040357;28;20091;-81